sensor_id;sensor_type;location;lat;lon;timestamp;temperature;humidity
14877;DHT22;69691;48.172;17.070;2024-01-11T00:00:33;-1.20;66.00
14877;DHT22;69691;48.172;17.070;2024-01-11T00:02:59;-1.30;66.20
14877;DHT22;69691;48.172;17.070;2024-01-11T00:05:25;-1.30;66.50
14877;DHT22;69691;48.172;17.070;2024-01-11T00:07:51;-1.30;66.60
14877;DHT22;69691;48.172;17.070;2024-01-11T00:10:17;-1.20;66.50
14877;DHT22;69691;48.172;17.070;2024-01-11T00:12:43;-1.20;66.40
14877;DHT22;69691;48.172;17.070;2024-01-11T00:15:08;-1.20;66.20
14877;DHT22;69691;48.172;17.070;2024-01-11T00:17:34;-1.20;66.10
14877;DHT22;69691;48.172;17.070;2024-01-11T00:20:01;-1.30;66.00
14877;DHT22;69691;48.172;17.070;2024-01-11T00:22:27;-1.30;66.10
14877;DHT22;69691;48.172;17.070;2024-01-11T00:24:53;-1.40;66.00
14877;DHT22;69691;48.172;17.070;2024-01-11T00:27:19;-1.40;66.00
14877;DHT22;69691;48.172;17.070;2024-01-11T00:29:45;-1.50;65.90
14877;DHT22;69691;48.172;17.070;2024-01-11T00:32:10;-1.50;66.00
14877;DHT22;69691;48.172;17.070;2024-01-11T00:34:36;-1.50;65.90
14877;DHT22;69691;48.172;17.070;2024-01-11T00:37:02;-1.50;65.90
14877;DHT22;69691;48.172;17.070;2024-01-11T00:39:28;-1.60;65.70
14877;DHT22;69691;48.172;17.070;2024-01-11T00:41:55;-1.60;65.70
14877;DHT22;69691;48.172;17.070;2024-01-11T00:44:21;-1.60;65.70
14877;DHT22;69691;48.172;17.070;2024-01-11T00:46:47;-1.60;65.60
14877;DHT22;69691;48.172;17.070;2024-01-11T00:49:12;-1.60;65.50
14877;DHT22;69691;48.172;17.070;2024-01-11T00:51:38;-1.60;65.30
14877;DHT22;69691;48.172;17.070;2024-01-11T00:54:05;-1.60;65.20
14877;DHT22;69691;48.172;17.070;2024-01-11T00:56:31;-1.60;65.10
14877;DHT22;69691;48.172;17.070;2024-01-11T00:58:56;-1.70;65.00
14877;DHT22;69691;48.172;17.070;2024-01-11T01:01:22;-1.70;65.10
14877;DHT22;69691;48.172;17.070;2024-01-11T01:03:48;-1.70;65.20
14877;DHT22;69691;48.172;17.070;2024-01-11T01:06:14;-1.70;65.40
14877;DHT22;69691;48.172;17.070;2024-01-11T01:08:39;-1.80;65.40
14877;DHT22;69691;48.172;17.070;2024-01-11T01:11:05;-1.80;65.50
14877;DHT22;69691;48.172;17.070;2024-01-11T01:13:32;-1.80;66.10
14877;DHT22;69691;48.172;17.070;2024-01-11T01:15:57;-1.80;65.20
14877;DHT22;69691;48.172;17.070;2024-01-11T01:18:23;-1.80;65.20
14877;DHT22;69691;48.172;17.070;2024-01-11T01:20:50;-1.80;65.20
14877;DHT22;69691;48.172;17.070;2024-01-11T01:23:16;-1.80;65.30
14877;DHT22;69691;48.172;17.070;2024-01-11T01:25:43;-1.80;65.40
14877;DHT22;69691;48.172;17.070;2024-01-11T01:28:09;-1.80;65.30
14877;DHT22;69691;48.172;17.070;2024-01-11T01:30:35;-1.80;65.30
14877;DHT22;69691;48.172;17.070;2024-01-11T01:33:02;-1.80;65.30
14877;DHT22;69691;48.172;17.070;2024-01-11T01:35:28;-1.80;65.20
14877;DHT22;69691;48.172;17.070;2024-01-11T01:37:54;-1.80;65.00
14877;DHT22;69691;48.172;17.070;2024-01-11T01:40:20;-1.80;64.90
14877;DHT22;69691;48.172;17.070;2024-01-11T01:42:47;-1.80;65.00
14877;DHT22;69691;48.172;17.070;2024-01-11T01:45:15;-1.80;65.00
14877;DHT22;69691;48.172;17.070;2024-01-11T01:47:42;-1.90;65.00
14877;DHT22;69691;48.172;17.070;2024-01-11T01:50:10;-1.90;65.10
14877;DHT22;69691;48.172;17.070;2024-01-11T01:52:38;-1.80;65.30
14877;DHT22;69691;48.172;17.070;2024-01-11T01:55:06;-1.80;65.10
14877;DHT22;69691;48.172;17.070;2024-01-11T01:57:33;-1.80;65.00
14877;DHT22;69691;48.172;17.070;2024-01-11T02:00:00;-1.80;64.90
14877;DHT22;69691;48.172;17.070;2024-01-11T02:02:27;-1.80;64.90
14877;DHT22;69691;48.172;17.070;2024-01-11T02:04:54;-1.70;65.00
14877;DHT22;69691;48.172;17.070;2024-01-11T02:07:20;-1.80;65.00
14877;DHT22;69691;48.172;17.070;2024-01-11T02:09:47;-1.70;65.00
14877;DHT22;69691;48.172;17.070;2024-01-11T02:12:13;-1.70;65.10
14877;DHT22;69691;48.172;17.070;2024-01-11T02:14:40;-1.80;65.10
14877;DHT22;69691;48.172;17.070;2024-01-11T02:17:06;-1.80;65.10
14877;DHT22;69691;48.172;17.070;2024-01-11T02:19:32;-1.80;65.20
14877;DHT22;69691;48.172;17.070;2024-01-11T02:22:05;-1.80;65.70
14877;DHT22;69691;48.172;17.070;2024-01-11T02:24:33;-1.80;65.90
14877;DHT22;69691;48.172;17.070;2024-01-11T02:27:04;-1.70;65.80
14877;DHT22;69691;48.172;17.070;2024-01-11T02:29:30;-1.70;65.60
14877;DHT22;69691;48.172;17.070;2024-01-11T02:31:58;-1.70;65.40
14877;DHT22;69691;48.172;17.070;2024-01-11T02:34:27;-1.70;65.20
14877;DHT22;69691;48.172;17.070;2024-01-11T02:36:54;-1.70;65.30
14877;DHT22;69691;48.172;17.070;2024-01-11T02:39:22;-1.70;65.30
14877;DHT22;69691;48.172;17.070;2024-01-11T02:41:55;-1.70;65.20
14877;DHT22;69691;48.172;17.070;2024-01-11T02:44:21;-1.70;65.20
14877;DHT22;69691;48.172;17.070;2024-01-11T02:46:47;-1.80;65.20
14877;DHT22;69691;48.172;17.070;2024-01-11T02:49:13;-1.80;65.30
14877;DHT22;69691;48.172;17.070;2024-01-11T02:51:39;-1.80;65.30
14877;DHT22;69691;48.172;17.070;2024-01-11T02:54:05;-1.80;65.30
14877;DHT22;69691;48.172;17.070;2024-01-11T02:56:31;-1.80;65.50
14877;DHT22;69691;48.172;17.070;2024-01-11T02:58:57;-1.80;65.60
14877;DHT22;69691;48.172;17.070;2024-01-11T03:01:22;-1.80;65.60
14877;DHT22;69691;48.172;17.070;2024-01-11T03:03:48;-1.80;65.60
14877;DHT22;69691;48.172;17.070;2024-01-11T03:06:14;-1.80;65.60
14877;DHT22;69691;48.172;17.070;2024-01-11T03:08:40;-1.80;65.60
14877;DHT22;69691;48.172;17.070;2024-01-11T03:11:06;-1.80;65.70
14877;DHT22;69691;48.172;17.070;2024-01-11T03:13:32;-1.80;65.70
14877;DHT22;69691;48.172;17.070;2024-01-11T03:15:57;-1.80;65.70
14877;DHT22;69691;48.172;17.070;2024-01-11T03:18:23;-1.80;65.70
14877;DHT22;69691;48.172;17.070;2024-01-11T03:20:49;-1.90;65.70
14877;DHT22;69691;48.172;17.070;2024-01-11T03:23:15;-1.90;66.00
14877;DHT22;69691;48.172;17.070;2024-01-11T03:25:40;-1.90;66.10
14877;DHT22;69691;48.172;17.070;2024-01-11T03:28:06;-1.90;66.20
14877;DHT22;69691;48.172;17.070;2024-01-11T03:30:32;-1.90;66.20
14877;DHT22;69691;48.172;17.070;2024-01-11T03:32:58;-2.00;66.40
14877;DHT22;69691;48.172;17.070;2024-01-11T03:35:24;-2.00;66.70
14877;DHT22;69691;48.172;17.070;2024-01-11T03:37:50;-2.00;66.70
14877;DHT22;69691;48.172;17.070;2024-01-11T03:40:15;-2.10;66.60
14877;DHT22;69691;48.172;17.070;2024-01-11T03:42:42;-2.10;67.40
14877;DHT22;69691;48.172;17.070;2024-01-11T03:45:09;-2.00;66.90
14877;DHT22;69691;48.172;17.070;2024-01-11T03:47:35;-2.00;66.80
14877;DHT22;69691;48.172;17.070;2024-01-11T03:50:00;-2.00;66.90
14877;DHT22;69691;48.172;17.070;2024-01-11T03:52:26;-2.00;66.70
14877;DHT22;69691;48.172;17.070;2024-01-11T03:54:52;-2.10;66.60
14877;DHT22;69691;48.172;17.070;2024-01-11T03:57:18;-2.10;66.90
14877;DHT22;69691;48.172;17.070;2024-01-11T03:59:44;-2.10;67.00
14877;DHT22;69691;48.172;17.070;2024-01-11T04:02:10;-2.20;66.90
14877;DHT22;69691;48.172;17.070;2024-01-11T04:04:36;-2.10;67.00
14877;DHT22;69691;48.172;17.070;2024-01-11T04:07:02;-2.10;67.00
14877;DHT22;69691;48.172;17.070;2024-01-11T04:09:28;-2.10;67.10
14877;DHT22;69691;48.172;17.070;2024-01-11T04:11:54;-2.10;67.30
14877;DHT22;69691;48.172;17.070;2024-01-11T04:14:20;-2.10;67.20
14877;DHT22;69691;48.172;17.070;2024-01-11T04:16:45;-2.10;67.10
14877;DHT22;69691;48.172;17.070;2024-01-11T04:19:11;-2.10;67.00
14877;DHT22;69691;48.172;17.070;2024-01-11T04:21:38;-2.10;66.90
14877;DHT22;69691;48.172;17.070;2024-01-11T04:24:05;-2.20;67.40
14877;DHT22;69691;48.172;17.070;2024-01-11T04:26:32;-2.20;67.30
14877;DHT22;69691;48.172;17.070;2024-01-11T04:28:58;-2.20;67.40
14877;DHT22;69691;48.172;17.070;2024-01-11T04:31:26;-2.20;67.20
14877;DHT22;69691;48.172;17.070;2024-01-11T04:33:52;-2.20;67.40
14877;DHT22;69691;48.172;17.070;2024-01-11T04:36:18;-2.30;67.60
14877;DHT22;69691;48.172;17.070;2024-01-11T04:38:43;-2.30;67.60
14877;DHT22;69691;48.172;17.070;2024-01-11T04:41:13;-2.30;67.40
14877;DHT22;69691;48.172;17.070;2024-01-11T04:43:40;-2.40;67.30
14877;DHT22;69691;48.172;17.070;2024-01-11T04:46:21;-2.40;67.30
14877;DHT22;69691;48.172;17.070;2024-01-11T04:48:49;-2.50;67.30
14877;DHT22;69691;48.172;17.070;2024-01-11T04:51:17;-2.50;67.50
14877;DHT22;69691;48.172;17.070;2024-01-11T04:53:44;-2.60;67.70
14877;DHT22;69691;48.172;17.070;2024-01-11T04:56:11;-2.60;67.70
14877;DHT22;69691;48.172;17.070;2024-01-11T04:58:42;-2.70;67.60
14877;DHT22;69691;48.172;17.070;2024-01-11T05:01:16;-2.70;67.80
14877;DHT22;69691;48.172;17.070;2024-01-11T05:03:46;-2.70;67.90
14877;DHT22;69691;48.172;17.070;2024-01-11T05:06:21;-2.80;67.80
14877;DHT22;69691;48.172;17.070;2024-01-11T05:08:49;-2.80;67.90
14877;DHT22;69691;48.172;17.070;2024-01-11T05:11:18;-2.90;68.00
14877;DHT22;69691;48.172;17.070;2024-01-11T05:13:44;-3.00;68.20
14877;DHT22;69691;48.172;17.070;2024-01-11T05:16:24;-3.10;68.50
14877;DHT22;69691;48.172;17.070;2024-01-11T05:18:52;-3.10;68.70
14877;DHT22;69691;48.172;17.070;2024-01-11T05:21:19;-3.10;68.70
14877;DHT22;69691;48.172;17.070;2024-01-11T05:23:45;-3.20;68.70
14877;DHT22;69691;48.172;17.070;2024-01-11T05:26:12;-3.20;68.80
14877;DHT22;69691;48.172;17.070;2024-01-11T05:28:39;-3.20;69.10
14877;DHT22;69691;48.172;17.070;2024-01-11T05:31:09;-3.30;69.10
14877;DHT22;69691;48.172;17.070;2024-01-11T05:33:36;-3.30;69.20
14877;DHT22;69691;48.172;17.070;2024-01-11T05:36:03;-3.30;69.20
14877;DHT22;69691;48.172;17.070;2024-01-11T05:38:29;-3.40;69.10
14877;DHT22;69691;48.172;17.070;2024-01-11T05:40:55;-3.40;69.20
14877;DHT22;69691;48.172;17.070;2024-01-11T05:43:22;-3.40;69.40
14877;DHT22;69691;48.172;17.070;2024-01-11T05:45:49;-3.40;69.50
14877;DHT22;69691;48.172;17.070;2024-01-11T05:48:16;-3.40;69.70
14877;DHT22;69691;48.172;17.070;2024-01-11T05:50:43;-3.50;69.80
14877;DHT22;69691;48.172;17.070;2024-01-11T05:53:10;-3.50;69.80
14877;DHT22;69691;48.172;17.070;2024-01-11T05:55:36;-3.50;70.00
14877;DHT22;69691;48.172;17.070;2024-01-11T05:58:03;-3.50;70.10
14877;DHT22;69691;48.172;17.070;2024-01-11T06:00:29;-3.60;70.10
14877;DHT22;69691;48.172;17.070;2024-01-11T06:02:55;-3.60;70.20
14877;DHT22;69691;48.172;17.070;2024-01-11T06:05:21;-3.60;70.20
14877;DHT22;69691;48.172;17.070;2024-01-11T06:07:47;-3.60;70.30
14877;DHT22;69691;48.172;17.070;2024-01-11T06:10:14;-3.70;70.50
14877;DHT22;69691;48.172;17.070;2024-01-11T06:12:40;-3.70;70.70
14877;DHT22;69691;48.172;17.070;2024-01-11T06:15:07;-3.70;71.00
14877;DHT22;69691;48.172;17.070;2024-01-11T06:17:33;-3.70;71.30
14877;DHT22;69691;48.172;17.070;2024-01-11T06:19:59;-3.70;71.40
14877;DHT22;69691;48.172;17.070;2024-01-11T06:22:25;-3.70;71.50
14877;DHT22;69691;48.172;17.070;2024-01-11T06:24:50;-3.60;71.50
14877;DHT22;69691;48.172;17.070;2024-01-11T06:27:16;-3.60;71.30
14877;DHT22;69691;48.172;17.070;2024-01-11T06:29:42;-3.60;71.30
14877;DHT22;69691;48.172;17.070;2024-01-11T06:32:08;-3.60;71.30
14877;DHT22;69691;48.172;17.070;2024-01-11T06:34:35;-3.70;71.20
14877;DHT22;69691;48.172;17.070;2024-01-11T06:37:01;-3.70;71.30
14877;DHT22;69691;48.172;17.070;2024-01-11T06:39:28;-3.70;71.40
14877;DHT22;69691;48.172;17.070;2024-01-11T06:41:55;-3.70;71.40
14877;DHT22;69691;48.172;17.070;2024-01-11T06:44:21;-3.70;71.80
14877;DHT22;69691;48.172;17.070;2024-01-11T06:46:47;-3.70;72.10
14877;DHT22;69691;48.172;17.070;2024-01-11T06:49:13;-3.70;72.30
14877;DHT22;69691;48.172;17.070;2024-01-11T06:51:38;-3.70;72.40
14877;DHT22;69691;48.172;17.070;2024-01-11T06:54:05;-3.60;72.30
14877;DHT22;69691;48.172;17.070;2024-01-11T06:56:30;-3.60;72.10
14877;DHT22;69691;48.172;17.070;2024-01-11T06:58:56;-3.60;71.90
14877;DHT22;69691;48.172;17.070;2024-01-11T07:01:22;-3.50;71.90
14877;DHT22;69691;48.172;17.070;2024-01-11T07:03:48;-3.50;71.90
14877;DHT22;69691;48.172;17.070;2024-01-11T07:06:15;-3.50;72.00
14877;DHT22;69691;48.172;17.070;2024-01-11T07:08:41;-3.60;72.10
14877;DHT22;69691;48.172;17.070;2024-01-11T07:11:07;-3.60;72.40
14877;DHT22;69691;48.172;17.070;2024-01-11T07:13:33;-3.50;72.60
14877;DHT22;69691;48.172;17.070;2024-01-11T07:15:59;-3.50;72.60
14877;DHT22;69691;48.172;17.070;2024-01-11T07:18:25;-3.50;72.60
14877;DHT22;69691;48.172;17.070;2024-01-11T07:20:52;-3.50;72.60
14877;DHT22;69691;48.172;17.070;2024-01-11T07:23:18;-3.40;72.60
14877;DHT22;69691;48.172;17.070;2024-01-11T07:25:44;-3.40;72.40
14877;DHT22;69691;48.172;17.070;2024-01-11T07:28:10;-3.30;72.20
14877;DHT22;69691;48.172;17.070;2024-01-11T07:30:36;-3.20;72.30
14877;DHT22;69691;48.172;17.070;2024-01-11T07:33:02;-3.10;72.40
14877;DHT22;69691;48.172;17.070;2024-01-11T07:35:30;-3.10;72.50
14877;DHT22;69691;48.172;17.070;2024-01-11T07:37:56;-3.00;72.50
14877;DHT22;69691;48.172;17.070;2024-01-11T07:40:22;-2.90;72.50
14877;DHT22;69691;48.172;17.070;2024-01-11T07:42:48;-2.90;72.30
14877;DHT22;69691;48.172;17.070;2024-01-11T07:45:13;-2.80;72.20
14877;DHT22;69691;48.172;17.070;2024-01-11T07:47:40;-2.70;72.10
14877;DHT22;69691;48.172;17.070;2024-01-11T07:50:06;-2.60;72.10
14877;DHT22;69691;48.172;17.070;2024-01-11T07:52:33;-2.60;72.00
14877;DHT22;69691;48.172;17.070;2024-01-11T07:54:59;-2.50;71.90
14877;DHT22;69691;48.172;17.070;2024-01-11T07:57:33;-2.40;71.90
14877;DHT22;69691;48.172;17.070;2024-01-11T08:00:00;-2.40;71.70
14877;DHT22;69691;48.172;17.070;2024-01-11T08:02:26;-2.30;71.70
14877;DHT22;69691;48.172;17.070;2024-01-11T08:04:52;-2.20;71.70
14877;DHT22;69691;48.172;17.070;2024-01-11T08:07:18;-2.20;71.40
14877;DHT22;69691;48.172;17.070;2024-01-11T08:09:44;-2.10;71.40
14877;DHT22;69691;48.172;17.070;2024-01-11T08:12:11;-2.00;71.30
14877;DHT22;69691;48.172;17.070;2024-01-11T08:14:39;-1.90;71.10
14877;DHT22;69691;48.172;17.070;2024-01-11T08:17:05;-1.90;70.90
14877;DHT22;69691;48.172;17.070;2024-01-11T08:19:31;-1.80;70.90
14877;DHT22;69691;48.172;17.070;2024-01-11T08:21:58;-1.70;70.90
14877;DHT22;69691;48.172;17.070;2024-01-11T08:24:24;-1.60;70.90
14877;DHT22;69691;48.172;17.070;2024-01-11T08:26:51;-1.50;70.70
14877;DHT22;69691;48.172;17.070;2024-01-11T08:29:17;-1.40;70.50
14877;DHT22;69691;48.172;17.070;2024-01-11T08:31:46;-1.30;70.40
14877;DHT22;69691;48.172;17.070;2024-01-11T08:34:12;-1.20;70.20
14877;DHT22;69691;48.172;17.070;2024-01-11T08:36:37;-1.10;70.00
14877;DHT22;69691;48.172;17.070;2024-01-11T08:39:05;-1.00;70.40
14877;DHT22;69691;48.172;17.070;2024-01-11T08:41:32;-0.90;69.50
14877;DHT22;69691;48.172;17.070;2024-01-11T08:43:58;-0.80;69.40
14877;DHT22;69691;48.172;17.070;2024-01-11T08:46:28;-0.70;69.30
14877;DHT22;69691;48.172;17.070;2024-01-11T08:48:56;-0.60;69.10
14877;DHT22;69691;48.172;17.070;2024-01-11T08:51:22;-0.50;68.90
14877;DHT22;69691;48.172;17.070;2024-01-11T08:53:48;-0.50;68.60
14877;DHT22;69691;48.172;17.070;2024-01-11T08:56:14;-0.40;68.70
14877;DHT22;69691;48.172;17.070;2024-01-11T08:58:42;-0.30;68.60
14877;DHT22;69691;48.172;17.070;2024-01-11T09:01:08;-0.20;68.30
14877;DHT22;69691;48.172;17.070;2024-01-11T09:03:35;-0.20;67.90
14877;DHT22;69691;48.172;17.070;2024-01-11T09:06:03;-0.20;67.70
14877;DHT22;69691;48.172;17.070;2024-01-11T09:08:29;-0.10;67.70
14877;DHT22;69691;48.172;17.070;2024-01-11T09:10:56;-0.10;67.60
14877;DHT22;69691;48.172;17.070;2024-01-11T09:13:24;0.00;67.50
14877;DHT22;69691;48.172;17.070;2024-01-11T09:15:52;0.00;67.10
14877;DHT22;69691;48.172;17.070;2024-01-11T09:18:18;-0.10;66.80
14877;DHT22;69691;48.172;17.070;2024-01-11T09:20:44;-0.20;66.80
14877;DHT22;69691;48.172;17.070;2024-01-11T09:23:11;-0.20;66.90
14877;DHT22;69691;48.172;17.070;2024-01-11T09:25:37;-0.40;66.70
14877;DHT22;69691;48.172;17.070;2024-01-11T09:28:05;-0.50;67.10
14877;DHT22;69691;48.172;17.070;2024-01-11T09:30:33;-0.50;67.40
14877;DHT22;69691;48.172;17.070;2024-01-11T09:32:59;-0.50;67.50
14877;DHT22;69691;48.172;17.070;2024-01-11T09:35:25;-0.50;67.30
14877;DHT22;69691;48.172;17.070;2024-01-11T09:37:51;-0.40;67.20
14877;DHT22;69691;48.172;17.070;2024-01-11T09:40:21;-0.40;66.90
14877;DHT22;69691;48.172;17.070;2024-01-11T09:42:47;-0.30;66.50
14877;DHT22;69691;48.172;17.070;2024-01-11T09:45:15;-0.30;66.30
14877;DHT22;69691;48.172;17.070;2024-01-11T09:47:42;-0.30;66.30
14877;DHT22;69691;48.172;17.070;2024-01-11T09:50:11;-0.20;66.10
14877;DHT22;69691;48.172;17.070;2024-01-11T09:52:46;-0.30;65.70
14877;DHT22;69691;48.172;17.070;2024-01-11T09:55:13;-0.40;65.80
14877;DHT22;69691;48.172;17.070;2024-01-11T09:57:45;-0.40;65.90
14877;DHT22;69691;48.172;17.070;2024-01-11T10:00:22;-0.30;65.80
14877;DHT22;69691;48.172;17.070;2024-01-11T10:02:49;-0.20;66.40
14877;DHT22;69691;48.172;17.070;2024-01-11T10:05:18;-0.20;65.50
14877;DHT22;69691;48.172;17.070;2024-01-11T10:07:44;-0.20;65.40
14877;DHT22;69691;48.172;17.070;2024-01-11T10:10:11;-0.20;65.40
14877;DHT22;69691;48.172;17.070;2024-01-11T10:12:40;-0.10;65.40
14877;DHT22;69691;48.172;17.070;2024-01-11T10:15:08;-0.10;65.40
14877;DHT22;69691;48.172;17.070;2024-01-11T10:17:41;-0.20;65.20
14877;DHT22;69691;48.172;17.070;2024-01-11T10:20:10;-0.30;65.40
14877;DHT22;69691;48.172;17.070;2024-01-11T10:22:40;-0.30;65.50
14877;DHT22;69691;48.172;17.070;2024-01-11T10:25:14;-0.40;65.40
14877;DHT22;69691;48.172;17.070;2024-01-11T10:27:42;-0.50;65.60
14877;DHT22;69691;48.172;17.070;2024-01-11T10:30:12;-0.50;65.90
14877;DHT22;69691;48.172;17.070;2024-01-11T10:32:41;-0.50;66.10
14877;DHT22;69691;48.172;17.070;2024-01-11T10:35:07;-0.50;66.10
14877;DHT22;69691;48.172;17.070;2024-01-11T10:37:33;-0.50;66.10
14877;DHT22;69691;48.172;17.070;2024-01-11T10:40:03;-0.50;66.30
14877;DHT22;69691;48.172;17.070;2024-01-11T10:42:36;-0.40;66.30
14877;DHT22;69691;48.172;17.070;2024-01-11T10:45:16;-0.40;66.20
14877;DHT22;69691;48.172;17.070;2024-01-11T10:48:01;-0.30;66.10
14877;DHT22;69691;48.172;17.070;2024-01-11T10:50:37;-0.20;65.80
14877;DHT22;69691;48.172;17.070;2024-01-11T10:55:42;-0.20;65.60
14877;DHT22;69691;48.172;17.070;2024-01-11T10:58:09;-0.20;65.80
14877;DHT22;69691;48.172;17.070;2024-01-11T11:00:36;-0.10;65.70
14877;DHT22;69691;48.172;17.070;2024-01-11T11:03:05;0.00;65.60
14877;DHT22;69691;48.172;17.070;2024-01-11T11:05:32;0.00;65.50
14877;DHT22;69691;48.172;17.070;2024-01-11T11:08:01;0.10;65.50
14877;DHT22;69691;48.172;17.070;2024-01-11T11:10:28;0.10;65.60
14877;DHT22;69691;48.172;17.070;2024-01-11T11:12:57;0.20;65.40
14877;DHT22;69691;48.172;17.070;2024-01-11T11:15:27;0.20;65.20
14877;DHT22;69691;48.172;17.070;2024-01-11T11:17:54;0.30;65.20
14877;DHT22;69691;48.172;17.070;2024-01-11T11:20:20;0.40;65.20
14877;DHT22;69691;48.172;17.070;2024-01-11T11:23:07;0.50;65.00
14877;DHT22;69691;48.172;17.070;2024-01-11T11:25:35;0.60;64.80
14877;DHT22;69691;48.172;17.070;2024-01-11T11:28:02;0.60;64.50
14877;DHT22;69691;48.172;17.070;2024-01-11T11:30:39;0.60;64.40
14877;DHT22;69691;48.172;17.070;2024-01-11T11:33:10;0.70;64.60
14877;DHT22;69691;48.172;17.070;2024-01-11T11:35:52;0.80;64.50
14877;DHT22;69691;48.172;17.070;2024-01-11T11:38:23;0.90;64.40
14877;DHT22;69691;48.172;17.070;2024-01-11T11:40:52;0.90;64.30
14877;DHT22;69691;48.172;17.070;2024-01-11T11:43:22;0.90;64.30
14877;DHT22;69691;48.172;17.070;2024-01-11T11:45:50;1.00;65.10
14877;DHT22;69691;48.172;17.070;2024-01-11T11:51:21;1.10;64.20
14877;DHT22;69691;48.172;17.070;2024-01-11T11:53:50;1.10;64.00
14877;DHT22;69691;48.172;17.070;2024-01-11T11:56:20;1.20;64.80
14877;DHT22;69691;48.172;17.070;2024-01-11T11:58:48;1.30;63.90
14877;DHT22;69691;48.172;17.070;2024-01-11T12:01:15;1.40;63.60
14877;DHT22;69691;48.172;17.070;2024-01-11T12:03:46;1.40;63.40
14877;DHT22;69691;48.172;17.070;2024-01-11T12:06:21;1.50;63.30
14877;DHT22;69691;48.172;17.070;2024-01-11T12:08:53;1.50;63.20
14877;DHT22;69691;48.172;17.070;2024-01-11T12:11:21;1.50;62.90
14877;DHT22;69691;48.172;17.070;2024-01-11T12:13:49;1.50;63.70
14877;DHT22;69691;48.172;17.070;2024-01-11T12:16:15;1.50;63.00
14877;DHT22;69691;48.172;17.070;2024-01-11T12:18:41;1.50;62.70
14877;DHT22;69691;48.172;17.070;2024-01-11T12:21:08;1.60;62.80
14877;DHT22;69691;48.172;17.070;2024-01-11T12:23:34;1.70;62.50
14877;DHT22;69691;48.172;17.070;2024-01-11T12:26:03;1.80;62.20
14877;DHT22;69691;48.172;17.070;2024-01-11T12:28:31;2.00;62.10
14877;DHT22;69691;48.172;17.070;2024-01-11T12:30:58;2.10;61.60
14877;DHT22;69691;48.172;17.070;2024-01-11T12:33:25;2.30;61.30
14877;DHT22;69691;48.172;17.070;2024-01-11T12:35:51;2.50;60.80
14877;DHT22;69691;48.172;17.070;2024-01-11T12:38:18;2.80;60.70
14877;DHT22;69691;48.172;17.070;2024-01-11T12:40:46;3.00;60.10
14877;DHT22;69691;48.172;17.070;2024-01-11T12:43:12;3.20;59.70
14877;DHT22;69691;48.172;17.070;2024-01-11T12:45:39;3.20;59.20
14877;DHT22;69691;48.172;17.070;2024-01-11T12:48:08;3.30;59.00
14877;DHT22;69691;48.172;17.070;2024-01-11T12:50:35;3.20;58.80
14877;DHT22;69691;48.172;17.070;2024-01-11T12:53:08;3.10;58.40
14877;DHT22;69691;48.172;17.070;2024-01-11T12:55:42;3.00;58.20
14877;DHT22;69691;48.172;17.070;2024-01-11T12:58:08;3.00;58.30
14877;DHT22;69691;48.172;17.070;2024-01-11T13:00:38;2.90;58.10
14877;DHT22;69691;48.172;17.070;2024-01-11T13:03:05;2.90;58.30
14877;DHT22;69691;48.172;17.070;2024-01-11T13:05:32;2.90;58.20
14877;DHT22;69691;48.172;17.070;2024-01-11T13:08:08;2.80;58.10
14877;DHT22;69691;48.172;17.070;2024-01-11T13:10:34;2.80;58.10
14877;DHT22;69691;48.172;17.070;2024-01-11T13:13:02;2.70;58.20
14877;DHT22;69691;48.172;17.070;2024-01-11T13:15:28;2.60;58.30
14877;DHT22;69691;48.172;17.070;2024-01-11T13:17:55;2.60;58.40
14877;DHT22;69691;48.172;17.070;2024-01-11T13:20:22;2.50;58.30
14877;DHT22;69691;48.172;17.070;2024-01-11T13:22:53;2.40;59.00
14877;DHT22;69691;48.172;17.070;2024-01-11T13:25:36;2.20;58.30
14877;DHT22;69691;48.172;17.070;2024-01-11T13:28:02;2.10;58.60
14877;DHT22;69691;48.172;17.070;2024-01-11T13:30:28;2.10;58.70
14877;DHT22;69691;48.172;17.070;2024-01-11T13:32:54;2.00;58.70
14877;DHT22;69691;48.172;17.070;2024-01-11T13:35:20;1.90;58.80
14877;DHT22;69691;48.172;17.070;2024-01-11T13:37:46;1.80;58.90
14877;DHT22;69691;48.172;17.070;2024-01-11T13:40:11;1.80;59.00
14877;DHT22;69691;48.172;17.070;2024-01-11T13:42:40;1.80;59.00
14877;DHT22;69691;48.172;17.070;2024-01-11T13:45:06;1.90;59.00
14877;DHT22;69691;48.172;17.070;2024-01-11T13:47:37;1.90;59.10
14877;DHT22;69691;48.172;17.070;2024-01-11T13:50:03;1.90;59.00
14877;DHT22;69691;48.172;17.070;2024-01-11T13:52:29;1.90;59.10
14877;DHT22;69691;48.172;17.070;2024-01-11T13:54:54;2.00;59.10
14877;DHT22;69691;48.172;17.070;2024-01-11T13:57:20;2.00;59.10
14877;DHT22;69691;48.172;17.070;2024-01-11T13:59:46;2.20;59.30
14877;DHT22;69691;48.172;17.070;2024-01-11T14:02:13;2.20;59.70
14877;DHT22;69691;48.172;17.070;2024-01-11T14:04:39;2.30;59.10
14877;DHT22;69691;48.172;17.070;2024-01-11T14:07:05;2.30;59.10
14877;DHT22;69691;48.172;17.070;2024-01-11T14:09:31;2.30;59.10
14877;DHT22;69691;48.172;17.070;2024-01-11T14:11:57;2.30;59.00
14877;DHT22;69691;48.172;17.070;2024-01-11T14:14:23;2.30;59.00
14877;DHT22;69691;48.172;17.070;2024-01-11T14:16:49;2.20;59.50
14877;DHT22;69691;48.172;17.070;2024-01-11T14:19:17;2.20;59.00
14877;DHT22;69691;48.172;17.070;2024-01-11T14:21:42;2.00;58.90
14877;DHT22;69691;48.172;17.070;2024-01-11T14:24:08;2.00;59.10
14877;DHT22;69691;48.172;17.070;2024-01-11T14:26:34;1.90;59.20
14877;DHT22;69691;48.172;17.070;2024-01-11T14:29:00;1.90;59.30
14877;DHT22;69691;48.172;17.070;2024-01-11T14:31:28;1.80;59.30
14877;DHT22;69691;48.172;17.070;2024-01-11T14:33:54;1.80;59.40
14877;DHT22;69691;48.172;17.070;2024-01-11T14:36:27;1.80;59.50
14877;DHT22;69691;48.172;17.070;2024-01-11T14:38:53;1.80;59.50
14877;DHT22;69691;48.172;17.070;2024-01-11T14:41:18;1.70;59.50
14877;DHT22;69691;48.172;17.070;2024-01-11T14:43:45;1.70;59.70
14877;DHT22;69691;48.172;17.070;2024-01-11T14:46:11;1.70;59.80
14877;DHT22;69691;48.172;17.070;2024-01-11T14:48:37;1.70;59.80
14877;DHT22;69691;48.172;17.070;2024-01-11T14:51:03;1.70;60.00
14877;DHT22;69691;48.172;17.070;2024-01-11T14:53:31;1.70;60.20
14877;DHT22;69691;48.172;17.070;2024-01-11T14:55:56;1.60;60.40
14877;DHT22;69691;48.172;17.070;2024-01-11T14:58:22;1.50;60.50
14877;DHT22;69691;48.172;17.070;2024-01-11T15:00:48;1.50;60.60
14877;DHT22;69691;48.172;17.070;2024-01-11T15:03:14;1.50;60.70
14877;DHT22;69691;48.172;17.070;2024-01-11T15:05:39;1.50;60.70
14877;DHT22;69691;48.172;17.070;2024-01-11T15:08:05;1.40;60.60
14877;DHT22;69691;48.172;17.070;2024-01-11T15:10:31;1.40;60.70
14877;DHT22;69691;48.172;17.070;2024-01-11T15:12:57;1.30;60.80
14877;DHT22;69691;48.172;17.070;2024-01-11T15:15:23;1.30;61.00
14877;DHT22;69691;48.172;17.070;2024-01-11T15:17:48;1.20;61.10
14877;DHT22;69691;48.172;17.070;2024-01-11T15:20:15;1.20;61.30
14877;DHT22;69691;48.172;17.070;2024-01-11T15:22:41;1.30;61.30
14877;DHT22;69691;48.172;17.070;2024-01-11T15:25:07;1.20;61.30